createdAt,value
2023-09-23T00:00:18.840Z,22.3300
2023-09-23T00:01:21.096Z,22.3400
2023-09-23T00:02:23.420Z,22.3400
2023-09-23T00:03:25.752Z,22.3400
2023-09-23T00:04:27.932Z,22.3500
2023-09-23T00:05:28.095Z,22.3600
2023-09-23T00:06:30.205Z,22.3600
2023-09-23T00:07:32.511Z,22.3500
2023-09-23T00:08:34.690Z,22.3500
2023-09-23T00:09:36.924Z,22.3600
2023-09-23T00:10:39.196Z,22.3500
2023-09-23T00:11:41.306Z,22.3400
2023-09-23T00:12:43.580Z,22.3500
2023-09-23T00:13:45.895Z,22.3600
2023-09-23T00:14:48.033Z,22.3500
2023-09-23T00:15:48.092Z,22.3600
2023-09-23T00:16:50.411Z,22.3700
2023-09-23T00:17:52.560Z,22.3700
2023-09-23T00:18:54.773Z,22.3700
2023-09-23T00:20:04.495Z,22.3700
2023-09-23T00:22:05.847Z,22.3200
2023-09-23T00:23:08.145Z,22.3500
2023-09-23T00:24:10.173Z,22.3600
2023-09-23T00:25:12.354Z,22.3500
2023-09-23T00:26:14.563Z,22.3500
2023-09-23T00:27:16.717Z,22.3600
2023-09-23T00:28:18.957Z,22.3700
2023-09-23T00:29:19.024Z,22.3500
2023-09-23T00:30:21.217Z,22.3600
2023-09-23T00:31:23.417Z,22.3600
2023-09-23T00:32:25.680Z,22.3500
2023-09-23T00:33:27.854Z,22.3500
2023-09-23T00:34:30.089Z,22.3500
2023-09-23T00:35:32.308Z,22.3400
2023-09-23T00:36:34.485Z,22.3300
2023-09-23T00:37:36.699Z,22.3200
2023-09-23T00:38:39.002Z,22.3100
2023-09-23T00:39:41.161Z,22.3100
2023-09-23T00:40:43.398Z,22.3100
2023-09-23T00:41:45.527Z,22.3200
2023-09-23T00:42:47.708Z,22.3300
2023-09-23T00:43:50.022Z,22.3300
2023-09-23T00:44:52.075Z,22.3300
2023-09-23T00:45:52.104Z,22.3300
2023-09-23T00:46:54.328Z,22.3200
2023-09-23T00:47:56.489Z,22.3200
2023-09-23T00:48:58.694Z,22.3300
2023-09-23T00:50:00.900Z,22.3200
2023-09-23T00:51:03.038Z,22.3200
2023-09-23T00:52:05.245Z,22.3200
2023-09-23T00:53:07.578Z,22.3100
2023-09-23T00:54:09.740Z,22.3100
2023-09-23T00:55:11.983Z,22.3100
2023-09-23T00:56:14.272Z,22.3000
2023-09-23T00:57:16.492Z,22.2900
2023-09-23T00:58:18.738Z,22.2700
2023-09-23T00:59:18.843Z,22.2700
2023-09-23T01:00:21.058Z,22.2600
2023-09-23T01:01:23.274Z,22.2400
2023-09-23T01:02:25.567Z,22.2400
2023-09-23T01:03:27.740Z,22.2300
2023-09-23T01:04:29.949Z,22.2300
2023-09-23T01:05:32.226Z,22.2400
2023-09-23T01:06:34.472Z,22.2600
2023-09-23T01:07:36.750Z,22.2600
2023-09-23T01:08:38.938Z,22.2800
2023-09-23T01:09:41.219Z,22.2900
2023-09-23T01:10:41.510Z,22.2900
2023-09-23T01:11:43.540Z,22.2900
2023-09-23T01:12:45.707Z,22.2900
2023-09-23T01:13:47.972Z,22.2900
2023-09-23T01:14:50.179Z,22.2900
2023-09-23T01:15:52.444Z,22.2800
2023-09-23T01:16:54.633Z,22.2700
2023-09-23T01:17:56.849Z,22.2800
2023-09-23T01:18:58.991Z,22.2700
2023-09-23T01:20:01.296Z,22.2800
2023-09-23T01:21:03.425Z,22.2700
2023-09-23T01:22:03.471Z,22.2500
2023-09-23T01:23:05.722Z,22.2400
2023-09-23T01:24:07.914Z,22.2200
2023-09-23T01:25:10.276Z,22.2000
2023-09-23T01:26:12.466Z,22.1800
2023-09-23T01:27:14.631Z,22.1800
2023-09-23T01:28:16.829Z,22.1700
2023-09-23T01:29:19.265Z,22.1600
2023-09-23T01:30:21.329Z,22.1500
2023-09-23T01:31:23.857Z,22.1200
2023-09-23T01:32:25.873Z,22.1000
2023-09-23T01:33:25.886Z,22.1000
2023-09-23T01:34:28.036Z,22.1000
2023-09-23T01:35:30.314Z,22.0900
2023-09-23T01:36:32.516Z,22.0900
2023-09-23T01:37:34.669Z,22.1000
2023-09-23T01:38:36.904Z,22.1100
2023-09-23T01:39:39.156Z,22.1100
2023-09-23T01:40:41.435Z,22.1100
2023-09-23T01:41:43.643Z,22.1000
2023-09-23T01:42:45.826Z,22.0900
2023-09-23T01:43:48.075Z,22.0800
2023-09-23T01:44:50.373Z,22.0900
2023-09-23T01:45:52.556Z,22.1000
2023-09-23T01:46:52.717Z,22.0900
2023-09-23T01:47:54.843Z,22.0900
2023-09-23T01:48:56.979Z,22.0900
2023-09-23T01:49:59.247Z,22.0800
2023-09-23T01:51:01.418Z,22.0800
2023-09-23T01:52:03.620Z,22.0800
2023-09-23T01:53:05.935Z,22.0600
2023-09-23T01:54:08.002Z,22.0500
2023-09-23T01:55:10.212Z,22.0400
2023-09-23T01:56:12.509Z,22.0200
2023-09-23T01:57:14.667Z,22.0100
2023-09-23T01:58:16.874Z,22.0100
2023-09-23T01:59:19.149Z,22.0000
2023-09-23T02:00:21.272Z,22.0000
2023-09-23T02:01:23.562Z,21.9900
2023-09-23T02:02:23.652Z,21.9900
2023-09-23T02:03:26.018Z,21.9900
2023-09-23T02:04:28.028Z,21.9800
2023-09-23T02:05:30.209Z,21.9800
2023-09-23T02:06:32.447Z,21.9800
2023-09-23T02:07:34.649Z,21.9700
2023-09-23T02:08:36.813Z,21.9900
2023-09-23T02:09:38.965Z,22.0000
2023-09-23T02:11:30.669Z,21.9600
2023-09-23T02:12:32.808Z,21.9600
2023-09-23T02:13:34.992Z,21.9600
2023-09-23T02:14:37.191Z,21.9700
2023-09-23T02:15:39.416Z,21.9800
2023-09-23T02:16:41.648Z,21.9800
2023-09-23T02:17:43.982Z,21.9800
2023-09-23T02:18:46.200Z,21.9800
2023-09-23T02:19:46.138Z,21.9900
2023-09-23T02:20:48.316Z,21.9800
2023-09-23T02:21:50.513Z,21.9700
2023-09-23T02:22:52.785Z,21.9700
2023-09-23T02:23:54.940Z,21.9700
2023-09-23T02:24:57.153Z,21.9700
2023-09-23T02:25:59.400Z,21.9500
2023-09-23T02:27:01.646Z,21.9500
2023-09-23T02:28:03.952Z,21.9500
2023-09-23T02:29:06.205Z,21.9600
2023-09-23T02:30:08.421Z,21.9700
2023-09-23T02:31:10.842Z,21.9800
2023-09-23T02:32:10.837Z,21.9900
2023-09-23T02:33:13.121Z,21.9900
2023-09-23T02:34:15.381Z,22.0000
2023-09-23T02:35:17.792Z,22.0100
2023-09-23T02:36:19.929Z,22.0100
2023-09-23T02:37:22.171Z,22.0100
2023-09-23T02:38:24.526Z,22.0200
2023-09-23T02:39:26.689Z,22.0200
2023-09-23T02:40:26.825Z,22.0200
2023-09-23T02:41:29.074Z,22.0200
2023-09-23T02:42:31.354Z,22.0100
2023-09-23T02:43:33.636Z,22.0000
2023-09-23T02:44:35.891Z,22.0000
2023-09-23T02:45:38.121Z,21.9900
2023-09-23T02:46:40.452Z,21.9900
2023-09-23T02:47:42.701Z,21.9900
2023-09-23T02:48:42.767Z,21.9900
2023-09-23T02:49:45.043Z,21.9800
2023-09-23T02:50:47.201Z,21.9700
2023-09-23T02:51:49.437Z,21.9800
2023-09-23T02:52:52.054Z,21.9800
2023-09-23T02:53:54.032Z,21.9700
2023-09-23T02:54:56.247Z,21.9700
2023-09-23T02:55:58.535Z,21.9700
2023-09-23T02:57:00.800Z,21.9600
2023-09-23T02:58:00.950Z,21.9600
2023-09-23T02:59:03.253Z,21.9600
2023-09-23T03:00:05.409Z,21.9600
2023-09-23T03:01:07.669Z,21.9600
2023-09-23T03:02:09.985Z,21.9500
2023-09-23T03:03:12.218Z,21.9600
2023-09-23T03:04:14.456Z,21.9600
2023-09-23T03:05:16.591Z,21.9500
2023-09-23T03:06:18.752Z,21.9500
2023-09-23T03:07:20.953Z,21.9500
2023-09-23T03:08:21.083Z,21.9500
2023-09-23T03:09:23.276Z,21.9500
2023-09-23T03:10:25.364Z,21.9500
2023-09-23T03:11:27.533Z,21.9600
2023-09-23T03:12:29.714Z,21.9600
2023-09-23T03:13:31.888Z,21.9600
2023-09-23T03:14:34.228Z,21.9500
2023-09-23T03:15:36.311Z,21.9400
2023-09-23T03:16:38.586Z,21.9400
2023-09-23T03:17:40.841Z,21.9300
2023-09-23T03:18:42.899Z,21.9300
2023-09-23T03:19:45.199Z,21.9300
2023-09-23T03:20:48.368Z,21.9300
2023-09-23T03:21:49.584Z,21.9300
2023-09-23T03:22:51.823Z,21.9300
2023-09-23T03:23:53.964Z,21.9400
2023-09-23T03:24:56.252Z,21.9300
2023-09-23T03:25:56.303Z,21.9300
2023-09-23T03:26:58.492Z,21.9300
2023-09-23T03:28:00.738Z,21.9100
2023-09-23T03:29:02.946Z,21.8900
2023-09-23T03:30:05.209Z,21.8700
2023-09-23T03:31:07.318Z,21.8500
2023-09-23T03:32:09.609Z,21.8400
2023-09-23T03:33:11.728Z,21.8400
2023-09-23T03:34:13.916Z,21.8400
2023-09-23T03:35:16.191Z,21.8400
2023-09-23T03:36:18.332Z,21.8600
2023-09-23T03:37:20.501Z,21.8600
2023-09-23T03:38:22.850Z,21.8700
2023-09-23T03:39:24.881Z,21.8700
2023-09-23T03:40:27.108Z,21.8700
2023-09-23T03:41:29.290Z,21.8800
2023-09-23T03:42:31.402Z,21.8800
2023-09-23T03:43:31.417Z,21.8800
2023-09-23T03:44:33.598Z,21.8800
2023-09-23T03:45:36.036Z,21.8900
2023-09-23T03:46:37.956Z,21.9000
2023-09-23T03:47:40.187Z,21.9100
2023-09-23T03:48:42.371Z,21.9100
2023-09-23T03:49:44.559Z,21.9100
2023-09-23T03:50:46.737Z,21.9200
2023-09-23T03:51:48.959Z,21.9200
2023-09-23T03:52:51.166Z,21.9300
2023-09-23T03:53:53.406Z,21.9400
2023-09-23T03:54:55.534Z,21.9400
2023-09-23T03:55:57.795Z,21.9400
2023-09-23T03:56:59.861Z,21.9600
2023-09-23T03:58:02.041Z,21.9600
2023-09-23T03:59:04.173Z,21.9700
2023-09-23T04:00:06.322Z,21.9800
2023-09-23T04:01:08.432Z,21.9800
2023-09-23T04:02:10.603Z,21.9800
2023-09-23T04:03:12.775Z,21.9900
2023-09-23T04:04:14.854Z,22.0000
2023-09-23T04:05:17.035Z,22.0000
2023-09-23T04:06:19.202Z,22.0000
2023-09-23T04:07:21.361Z,22.0000
2023-09-23T04:08:23.622Z,22.0100
2023-09-23T04:09:25.723Z,22.0000
2023-09-23T04:10:27.961Z,22.0100
2023-09-23T04:11:28.044Z,22.0100
2023-09-23T04:12:30.220Z,22.0200
2023-09-23T04:13:32.356Z,22.0200
2023-09-23T04:14:34.517Z,22.0300
2023-09-23T04:15:36.620Z,22.0300
2023-09-23T04:16:38.803Z,22.0300
2023-09-23T04:17:40.909Z,22.0400
2023-09-23T04:18:43.040Z,22.0300
2023-09-23T04:19:45.228Z,22.0300
2023-09-23T04:20:47.398Z,22.0200
2023-09-23T04:21:49.619Z,22.0200
2023-09-23T04:22:51.785Z,22.0000
2023-09-23T04:23:53.912Z,22.0000
2023-09-23T04:24:56.092Z,22.0000
2023-09-23T04:25:58.297Z,22.0000
2023-09-23T04:27:00.487Z,21.9900
2023-09-23T04:28:02.553Z,21.9900
2023-09-23T04:29:04.730Z,21.9900
2023-09-23T04:30:06.868Z,21.9900
2023-09-23T04:31:09.033Z,21.9900
2023-09-23T04:32:11.231Z,21.9900
2023-09-23T04:33:13.679Z,21.9800
2023-09-23T04:34:15.523Z,21.9800
2023-09-23T04:35:17.831Z,21.9600
2023-09-23T04:37:35.051Z,21.9200
2023-09-23T04:38:37.149Z,21.9300
2023-09-23T04:39:39.337Z,21.9300
2023-09-23T04:40:39.330Z,21.9300
2023-09-23T04:41:41.525Z,21.9200
2023-09-23T04:42:43.756Z,21.9100
2023-09-23T04:43:45.886Z,21.9000
2023-09-23T04:44:48.060Z,21.9000
2023-09-23T04:45:50.349Z,21.8900
2023-09-23T04:46:52.656Z,21.8600
2023-09-23T04:47:54.835Z,21.8300
2023-09-23T04:48:57.048Z,21.8000
2023-09-23T04:49:59.356Z,21.7800
2023-09-23T04:51:01.486Z,21.7600
2023-09-23T04:52:03.653Z,21.7400
2023-09-23T04:53:05.885Z,21.7300
2023-09-23T04:54:08.070Z,21.7300
2023-09-23T04:55:08.171Z,21.7100
2023-09-23T04:56:10.411Z,21.7100
2023-09-23T04:57:12.613Z,21.7100
2023-09-23T04:58:14.920Z,21.7200
2023-09-23T04:59:17.138Z,21.7200
2023-09-23T05:00:19.356Z,21.7300
2023-09-23T05:01:21.585Z,21.7300
2023-09-23T05:02:23.870Z,21.7200
2023-09-23T05:03:26.089Z,21.7100
2023-09-23T05:04:28.361Z,21.7000
2023-09-23T05:05:30.465Z,21.6900
2023-09-23T05:06:32.618Z,21.7000
2023-09-23T05:07:34.821Z,21.6900
2023-09-23T05:08:34.839Z,21.6900
2023-09-23T05:09:36.950Z,21.6900
2023-09-23T05:10:39.163Z,21.6900
2023-09-23T05:11:41.297Z,21.7100
2023-09-23T05:12:43.494Z,21.7200
2023-09-23T05:13:45.783Z,21.7100
2023-09-23T05:14:47.932Z,21.7100
2023-09-23T05:15:50.184Z,21.7000
2023-09-23T05:16:52.316Z,21.6800
2023-09-23T05:17:54.582Z,21.6500
2023-09-23T05:18:56.864Z,21.6500
2023-09-23T05:19:59.000Z,21.6500
2023-09-23T05:21:01.130Z,21.6400
2023-09-23T05:22:03.299Z,21.6400
2023-09-23T05:23:05.568Z,21.6200
2023-09-23T05:24:05.614Z,21.6200
2023-09-23T05:25:07.792Z,21.6100
2023-09-23T05:26:10.057Z,21.6200
2023-09-23T05:27:12.234Z,21.6200
2023-09-23T05:28:14.455Z,21.6300
2023-09-23T05:29:16.803Z,21.6200
2023-09-23T05:30:18.900Z,21.6300
2023-09-23T05:31:21.155Z,21.6400
2023-09-23T05:32:23.407Z,21.6400
2023-09-23T05:33:25.562Z,21.6600
2023-09-23T05:34:27.922Z,21.6700
2023-09-23T05:35:30.015Z,21.6800
2023-09-23T05:36:32.233Z,21.7000
2023-09-23T05:37:32.317Z,21.7100
2023-09-23T05:38:34.544Z,21.7100
2023-09-23T05:39:36.817Z,21.7000
2023-09-23T05:40:39.016Z,21.6800
2023-09-23T05:41:41.209Z,21.6700
2023-09-23T05:42:43.428Z,21.6600
2023-09-23T05:43:45.715Z,21.6700
2023-09-23T05:44:47.886Z,21.6700
2023-09-23T05:45:50.044Z,21.6700
2023-09-23T05:46:52.332Z,21.6600
2023-09-23T05:47:54.857Z,21.6600
2023-09-23T05:48:56.741Z,21.6700
2023-09-23T05:49:56.879Z,21.6700
2023-09-23T05:50:59.050Z,21.6700
2023-09-23T05:52:01.273Z,21.6700
2023-09-23T05:53:03.635Z,21.6700
2023-09-23T05:54:05.722Z,21.6800
2023-09-23T05:55:08.089Z,21.6700
2023-09-23T05:56:10.245Z,21.6700
2023-09-23T05:57:12.448Z,21.6800
2023-09-23T05:58:14.639Z,21.6700
2023-09-23T05:59:16.927Z,21.6600
2023-09-23T06:00:19.271Z,21.6700
2023-09-23T06:01:21.384Z,21.6600
2023-09-23T06:02:21.478Z,21.6600
2023-09-23T06:03:23.696Z,21.6600
2023-09-23T06:04:25.859Z,21.6600
2023-09-23T06:05:28.898Z,21.6600
2023-09-23T06:06:30.344Z,21.6400
2023-09-23T06:07:32.600Z,21.6300
2023-09-23T06:08:34.834Z,21.6200
2023-09-23T06:09:37.092Z,21.6000
2023-09-23T06:10:39.375Z,21.5900
2023-09-23T06:11:41.618Z,21.5900
2023-09-23T06:12:43.848Z,21.5900
2023-09-23T06:13:44.083Z,21.5900
2023-09-23T06:14:46.143Z,21.5900
2023-09-23T06:15:48.489Z,21.5700
2023-09-23T06:16:50.754Z,21.5600
2023-09-23T06:17:53.076Z,21.5400
2023-09-23T06:19:59.786Z,21.4600
2023-09-23T06:21:01.925Z,21.4400
2023-09-23T06:22:02.998Z,21.3400
2023-09-23T06:23:05.222Z,21.2800
2023-09-23T06:24:07.420Z,21.2500
2023-09-23T06:25:09.575Z,21.2300
2023-09-23T06:26:11.882Z,21.2200
2023-09-23T06:27:13.968Z,21.2100
2023-09-23T06:28:16.181Z,21.2000
2023-09-23T06:29:18.340Z,21.2000
2023-09-23T06:30:20.500Z,21.1900
2023-09-23T06:31:22.736Z,21.1700
2023-09-23T06:32:24.921Z,21.1700
2023-09-23T06:33:26.898Z,21.1600
2023-09-23T06:34:29.048Z,21.1700
2023-09-23T06:35:31.250Z,21.1600
2023-09-23T06:36:33.558Z,21.1600
2023-09-23T06:37:33.485Z,21.1400
2023-09-23T06:38:35.719Z,21.1300
2023-09-23T06:39:37.893Z,21.1400
2023-09-23T06:40:40.160Z,21.1400
2023-09-23T06:41:42.383Z,21.1400
2023-09-23T06:42:42.481Z,21.1400
2023-09-23T06:43:45.033Z,21.1500
2023-09-23T06:44:47.057Z,21.1500
2023-09-23T06:45:49.354Z,21.1500
2023-09-23T06:46:49.576Z,21.1400
2023-09-23T06:47:51.942Z,21.1200
2023-09-23T06:48:54.081Z,21.1100
2023-09-23T06:49:56.384Z,21.1000
2023-09-23T06:50:58.707Z,21.1000
2023-09-23T06:52:01.072Z,21.1000
2023-09-23T06:53:03.327Z,21.0900
2023-09-23T06:54:03.354Z,21.0800
2023-09-23T06:55:05.672Z,21.0900
2023-09-23T06:56:08.033Z,21.1000
2023-09-23T06:57:10.247Z,21.1300
2023-09-23T06:58:10.311Z,21.1500
2023-09-23T06:59:12.603Z,21.1700
2023-09-23T07:00:14.851Z,21.1800
2023-09-23T07:01:17.223Z,21.2000
2023-09-23T07:02:17.459Z,21.2300
2023-09-23T07:03:19.860Z,21.2400
2023-09-23T07:04:21.993Z,21.2400
2023-09-23T07:05:24.219Z,21.2500
2023-09-23T07:06:26.512Z,21.2400
2023-09-23T07:07:28.841Z,21.2300
2023-09-23T07:08:31.215Z,21.2200
2023-09-23T07:09:33.424Z,21.2100
2023-09-23T07:10:35.712Z,21.2100
2023-09-23T07:11:38.010Z,21.2200
2023-09-23T07:12:38.160Z,21.2300
2023-09-23T07:13:40.426Z,21.2400
2023-09-23T07:14:42.707Z,21.2400
2023-09-23T07:15:45.014Z,21.2400
2023-09-23T07:16:47.485Z,21.2500
2023-09-23T07:17:49.592Z,21.2500
2023-09-23T07:18:51.763Z,21.2300
2023-09-23T07:19:54.029Z,21.2300
2023-09-23T07:20:56.177Z,21.2200
2023-09-23T07:21:58.379Z,21.2200
2023-09-23T07:23:00.620Z,21.2200
2023-09-23T07:24:04.754Z,21.2200
2023-09-23T07:25:04.996Z,21.2100
2023-09-23T07:26:07.319Z,21.2100
2023-09-23T07:27:09.386Z,21.2000
2023-09-23T07:28:11.665Z,21.2000
2023-09-23T07:29:13.758Z,21.1900
2023-09-23T07:30:18.336Z,21.1700
2023-09-23T07:31:18.246Z,21.1600
2023-09-23T07:32:20.464Z,21.1400
2023-09-23T07:33:22.649Z,21.1300
2023-09-23T07:34:24.850Z,21.1300
2023-09-23T07:35:27.049Z,21.1300
2023-09-23T07:36:29.249Z,21.1300
2023-09-23T07:37:31.433Z,21.1200
2023-09-23T07:38:33.749Z,21.1100
2023-09-23T07:39:33.804Z,21.1000
2023-09-23T07:40:36.095Z,21.0800
2023-09-23T07:41:38.368Z,21.0700
2023-09-23T07:42:40.662Z,21.0500
2023-09-23T07:43:40.816Z,21.0300
2023-09-23T07:44:43.076Z,21.0100
2023-09-23T07:45:45.395Z,21.0100
2023-09-23T07:46:47.651Z,21.0200
2023-09-23T07:47:49.926Z,21.0300
2023-09-23T07:48:52.297Z,21.0500
2023-09-23T07:49:54.422Z,21.0600
2023-09-23T07:50:56.640Z,21.0800
2023-09-23T07:51:58.825Z,21.0900
2023-09-23T07:53:01.082Z,21.1100
2023-09-23T07:54:03.290Z,21.1200
2023-09-23T07:55:05.503Z,21.1400
2023-09-23T07:56:07.768Z,21.1600
2023-09-23T07:57:09.982Z,21.1700
2023-09-23T07:59:41.360Z,21.2900
2023-09-23T08:00:42.446Z,21.3600
2023-09-23T08:01:44.781Z,21.4100
2023-09-23T08:02:47.016Z,21.4400
2023-09-23T08:03:49.273Z,21.4700
2023-09-23T08:04:51.486Z,21.4800
2023-09-23T08:05:53.633Z,21.4900
2023-09-23T08:06:55.771Z,21.4900
2023-09-23T08:07:55.886Z,21.4800
2023-09-23T08:08:58.154Z,21.4800
2023-09-23T08:10:00.404Z,21.4700
2023-09-23T08:11:02.773Z,21.4600
2023-09-23T08:12:04.930Z,21.4600
2023-09-23T08:13:07.206Z,21.4500
2023-09-23T08:14:09.524Z,21.4400
2023-09-23T08:15:11.763Z,21.4400
2023-09-23T08:16:11.886Z,21.4500
2023-09-23T08:17:14.157Z,21.4600
2023-09-23T08:18:16.422Z,21.4700
2023-09-23T08:19:18.673Z,21.4800
2023-09-23T08:20:21.111Z,21.4800
2023-09-23T08:21:23.211Z,21.5000
2023-09-23T08:22:25.405Z,21.5100
2023-09-23T08:23:27.647Z,21.5200
2023-09-23T08:24:29.825Z,21.5300
2023-09-23T08:25:32.063Z,21.5300
2023-09-23T08:26:34.244Z,21.5200
2023-09-23T08:27:36.420Z,21.5200
2023-09-23T08:28:36.586Z,21.5400
2023-09-23T08:29:38.853Z,21.5500
2023-09-23T08:30:41.153Z,21.5600
2023-09-23T08:31:43.474Z,21.5600
2023-09-23T08:32:45.795Z,21.5400
2023-09-23T08:33:48.221Z,21.5200
2023-09-23T08:34:50.405Z,21.5200
2023-09-23T08:35:52.685Z,21.5100
2023-09-23T08:36:54.823Z,21.5000
2023-09-23T08:37:57.107Z,21.5000
2023-09-23T08:38:59.386Z,21.5100
2023-09-23T08:40:01.664Z,21.5000
2023-09-23T08:41:04.013Z,21.5200
2023-09-23T08:42:04.067Z,21.5300
2023-09-23T08:43:06.316Z,21.5300
2023-09-23T08:44:08.589Z,21.5300
2023-09-23T08:45:10.871Z,21.5300
2023-09-23T08:46:13.154Z,21.5300
2023-09-23T08:47:15.259Z,21.5300
2023-09-23T08:48:17.462Z,21.5300
2023-09-23T08:49:19.629Z,21.5300
2023-09-23T08:50:21.968Z,21.5200
2023-09-23T08:51:24.134Z,21.5100
2023-09-23T08:52:26.281Z,21.5000
2023-09-23T08:53:28.561Z,21.5000
2023-09-23T08:54:28.821Z,21.5100
2023-09-23T08:55:30.886Z,21.5200
2023-09-23T08:56:33.160Z,21.5300
2023-09-23T08:57:35.370Z,21.5200
2023-09-23T08:58:37.574Z,21.5100
2023-09-23T08:59:39.770Z,21.5100
2023-09-23T09:00:41.961Z,21.5000
2023-09-23T09:01:44.272Z,21.5000
2023-09-23T09:02:46.451Z,21.5000
2023-09-23T09:03:48.733Z,21.5000
2023-09-23T09:04:50.994Z,21.5100
2023-09-23T09:05:53.279Z,21.5100
2023-09-23T09:06:55.506Z,21.5100
2023-09-23T09:07:57.692Z,21.5000
2023-09-23T09:08:59.910Z,21.5100
2023-09-23T09:10:02.176Z,21.5200
2023-09-23T09:11:04.506Z,21.5300
2023-09-23T09:12:06.664Z,21.5300
2023-09-23T09:13:08.821Z,21.5300
2023-09-23T09:14:11.064Z,21.5400
2023-09-23T09:16:39.313Z,21.5200
2023-09-23T09:17:41.515Z,21.5200
2023-09-23T09:18:43.758Z,21.5200
2023-09-23T09:19:47.389Z,21.5200
2023-09-23T09:20:48.201Z,21.5300
2023-09-23T09:21:50.452Z,21.5300
2023-09-23T09:22:52.839Z,21.5300
2023-09-23T09:23:54.880Z,21.5300
2023-09-23T09:24:57.162Z,21.5400
2023-09-23T09:25:57.331Z,21.5400
2023-09-23T09:26:59.573Z,21.5500
2023-09-23T09:28:01.884Z,21.5400
2023-09-23T09:29:04.138Z,21.5200
2023-09-23T09:30:14.114Z,21.5200
2023-09-23T09:31:08.600Z,21.4900
2023-09-23T09:32:10.886Z,21.4900
2023-09-23T09:33:13.110Z,21.5100
2023-09-23T09:34:15.341Z,21.5100
2023-09-23T09:35:17.577Z,21.5000
2023-09-23T09:36:18.378Z,21.4900
2023-09-23T09:37:19.809Z,21.4800
2023-09-23T09:38:22.045Z,21.4800
2023-09-23T09:39:23.987Z,21.4800
2023-09-23T09:40:26.000Z,21.4800
2023-09-23T09:41:28.131Z,21.4800
2023-09-23T09:42:30.149Z,21.4700
2023-09-23T09:43:32.303Z,21.4700
2023-09-23T09:44:34.436Z,21.4700
2023-09-23T09:45:36.608Z,21.4700
2023-09-23T09:46:38.836Z,21.4700
2023-09-23T09:47:41.135Z,21.4700
2023-09-23T09:48:43.271Z,21.4800
2023-09-23T09:49:45.463Z,21.4900
2023-09-23T09:50:47.677Z,21.4900
2023-09-23T09:51:49.937Z,21.4800
2023-09-23T09:52:52.306Z,21.4800
2023-09-23T09:53:54.432Z,21.4900
2023-09-23T09:54:56.549Z,21.4800
2023-09-23T09:55:58.772Z,21.4900
2023-09-23T09:57:00.998Z,21.5000
2023-09-23T09:58:03.234Z,21.5100
2023-09-23T09:59:05.558Z,21.5000
2023-09-23T10:00:07.834Z,21.5000
2023-09-23T10:01:10.136Z,21.5100
2023-09-23T10:02:12.411Z,21.5100
2023-09-23T10:03:12.713Z,21.5000
2023-09-23T10:04:14.729Z,21.5000
2023-09-23T10:05:17.045Z,21.5100
2023-09-23T10:06:19.225Z,21.5200
2023-09-23T10:07:21.422Z,21.5200
2023-09-23T10:08:23.701Z,21.5500
2023-09-23T10:09:25.949Z,21.5600
2023-09-23T10:10:28.172Z,21.5700
2023-09-23T10:11:30.517Z,21.5800
2023-09-23T10:12:32.705Z,21.5900
2023-09-23T10:13:32.851Z,21.5900
2023-09-23T10:14:35.290Z,21.6000
2023-09-23T10:15:37.321Z,21.6000
2023-09-23T10:16:39.636Z,21.6100
2023-09-23T10:17:41.946Z,21.6200
2023-09-23T10:18:44.274Z,21.6300
2023-09-23T10:19:46.343Z,21.6200
2023-09-23T10:20:48.520Z,21.6000
2023-09-23T10:21:50.748Z,21.5900
2023-09-23T10:22:53.031Z,21.6000
2023-09-23T10:23:52.983Z,21.6000
2023-09-23T10:24:55.281Z,21.6100
2023-09-23T10:25:57.396Z,21.6100
2023-09-23T10:26:59.587Z,21.6200
2023-09-23T10:28:01.797Z,21.6200
2023-09-23T10:29:04.041Z,21.6100
2023-09-23T10:30:06.258Z,21.6200
2023-09-23T10:31:08.571Z,21.6000
2023-09-23T10:32:10.719Z,21.6000
2023-09-23T10:33:12.996Z,21.6000
2023-09-23T10:34:15.196Z,21.5900
2023-09-23T10:35:17.533Z,21.5500
2023-09-23T10:36:17.555Z,21.5200
2023-09-23T10:37:19.800Z,21.5300
2023-09-23T10:38:22.109Z,21.5200
2023-09-23T10:39:24.343Z,21.5100
2023-09-23T10:40:26.602Z,21.5100
2023-09-23T10:41:28.777Z,21.5100
2023-09-23T10:42:30.938Z,21.5100
2023-09-23T10:43:33.190Z,21.5000
2023-09-23T10:44:35.512Z,21.5000
2023-09-23T10:45:37.708Z,21.4900
2023-09-23T10:46:40.038Z,21.4900
2023-09-23T10:47:40.068Z,21.4900
2023-09-23T10:48:42.247Z,21.5000
2023-09-23T10:49:44.515Z,21.5100
2023-09-23T10:50:46.829Z,21.5100
2023-09-23T10:51:49.102Z,21.5200
2023-09-23T10:52:51.365Z,21.5100
2023-09-23T10:53:53.638Z,21.5100
2023-09-23T10:54:55.905Z,21.5200
2023-09-23T10:55:58.238Z,21.5300
2023-09-23T10:57:00.443Z,21.5400
2023-09-23T10:58:02.767Z,21.5500
2023-09-23T10:59:05.049Z,21.5500
2023-09-23T11:00:07.294Z,21.5500
2023-09-23T11:01:09.620Z,21.5500
2023-09-23T11:02:11.921Z,21.5400
2023-09-23T11:03:12.187Z,21.5400
2023-09-23T11:04:14.313Z,21.5400
2023-09-23T11:05:16.577Z,21.5300
2023-09-23T11:06:18.815Z,21.5300
2023-09-23T11:07:21.045Z,21.5300
2023-09-23T11:08:23.402Z,21.5300
2023-09-23T11:09:26.529Z,21.5400
2023-09-23T11:10:27.927Z,21.5400
2023-09-23T11:11:28.120Z,21.5500
2023-09-23T11:12:30.243Z,21.5600
2023-09-23T11:13:32.508Z,21.5700
2023-09-23T11:14:34.773Z,21.5700
2023-09-23T11:15:37.015Z,21.5800
2023-09-23T11:16:39.300Z,21.5900
2023-09-23T11:17:41.623Z,21.5900
2023-09-23T11:18:43.868Z,21.5900
2023-09-23T11:19:44.678Z,21.5800
2023-09-23T11:20:46.353Z,21.5800
2023-09-23T11:21:48.616Z,21.5800
2023-09-23T11:22:50.873Z,21.5900
2023-09-23T11:23:53.139Z,21.6000
2023-09-23T11:24:55.436Z,21.6200
2023-09-23T11:25:57.776Z,21.6200
2023-09-23T11:26:58.069Z,21.6300
2023-09-23T11:28:00.267Z,21.6300
2023-09-23T11:29:02.469Z,21.6300
2023-09-23T11:30:04.750Z,21.6300
2023-09-23T11:31:07.042Z,21.6300
2023-09-23T11:32:07.351Z,21.6300
2023-09-23T11:33:09.590Z,21.6300
2023-09-23T11:34:11.831Z,21.6300
2023-09-23T11:35:14.124Z,21.6200
2023-09-23T11:36:16.392Z,21.6200
2023-09-23T11:37:18.676Z,21.6300
2023-09-23T11:38:20.990Z,21.6300
2023-09-23T11:39:23.249Z,21.6400
2023-09-23T11:40:23.392Z,21.6400
2023-09-23T11:41:25.694Z,21.6600
2023-09-23T11:42:28.003Z,21.6700
2023-09-23T11:43:30.209Z,21.7000
2023-09-23T11:44:33.263Z,21.7200
2023-09-23T11:45:34.871Z,21.7400
2023-09-23T11:46:34.931Z,21.7500
2023-09-23T11:47:37.291Z,21.7600
2023-09-23T11:48:39.449Z,21.7600
2023-09-23T11:49:41.729Z,21.7600
2023-09-23T11:50:44.047Z,21.7600
2023-09-23T11:51:46.320Z,21.7700
2023-09-23T11:52:48.668Z,21.7700
2023-09-23T11:53:50.845Z,21.7600
2023-09-23T11:54:50.986Z,21.7600
2023-09-23T11:55:53.174Z,21.7700
2023-09-23T11:56:55.427Z,21.7700
2023-09-23T11:57:57.780Z,21.7700
2023-09-23T11:59:08.275Z,21.7700
2023-09-23T12:00:02.285Z,21.7400
2023-09-23T12:01:04.575Z,21.7500
2023-09-23T12:02:06.926Z,21.7600
2023-09-23T12:03:07.106Z,21.7500
2023-09-23T12:04:09.427Z,21.7500
2023-09-23T12:05:11.847Z,21.7500
2023-09-23T12:06:14.035Z,21.7400
2023-09-23T12:07:16.277Z,21.7300
2023-09-23T12:08:16.496Z,21.7400
2023-09-23T12:09:18.722Z,21.7500
2023-09-23T12:10:21.012Z,21.7600
2023-09-23T12:11:23.381Z,21.7700
2023-09-23T12:12:25.592Z,21.7800
2023-09-23T12:13:27.941Z,21.8000
2023-09-23T12:14:30.245Z,21.7900
2023-09-23T12:15:30.309Z,21.8000
2023-09-23T12:16:32.613Z,21.8100
2023-09-23T12:17:35.002Z,21.8100
2023-09-23T12:18:37.189Z,21.8000
2023-09-23T12:19:39.467Z,21.8000
2023-09-23T12:20:41.801Z,21.7900
2023-09-23T12:21:44.023Z,21.7900
2023-09-23T12:22:45.187Z,21.7200
2023-09-23T12:23:47.521Z,21.6400
2023-09-23T12:24:49.796Z,21.6000
2023-09-23T12:25:49.942Z,21.5700
2023-09-23T12:26:52.253Z,21.5500
2023-09-23T12:27:54.552Z,21.5200
2023-09-23T12:28:57.011Z,21.5200
2023-09-23T12:29:59.160Z,21.5400
2023-09-23T12:31:01.397Z,21.5500
2023-09-23T12:32:03.672Z,21.5600
2023-09-23T12:33:05.949Z,21.5700
2023-09-23T12:34:08.282Z,21.5700
2023-09-23T12:35:10.575Z,21.5800
2023-09-23T12:36:12.777Z,21.5700
2023-09-23T12:37:15.033Z,21.5600